sensor_id;sensor_type;location;lat;lon;timestamp;P1;durP1;ratioP1;P2;durP2;ratioP2
56481;SDS011;42384;45.186;19.958;2023-02-23T00:02:10;24.57;;;16.90;;
56481;SDS011;42384;45.186;19.958;2023-02-23T00:04:37;24.10;;;16.90;;
56481;SDS011;42384;45.186;19.958;2023-02-23T00:07:03;25.95;;;16.30;;
56481;SDS011;42384;45.186;19.958;2023-02-23T00:09:33;22.00;;;14.65;;
56481;SDS011;42384;45.186;19.958;2023-02-23T00:12:00;29.30;;;17.60;;
56481;SDS011;42384;45.186;19.958;2023-02-23T00:14:32;28.75;;;19.30;;
56481;SDS011;42384;45.186;19.958;2023-02-23T00:19:25;24.33;;;14.18;;
56481;SDS011;42384;45.186;19.958;2023-02-23T00:21:51;23.90;;;15.02;;
56481;SDS011;42384;45.186;19.958;2023-02-23T00:24:18;22.63;;;15.02;;
56481;SDS011;42384;45.186;19.958;2023-02-23T00:26:45;17.33;;;11.80;;
56481;SDS011;42384;45.186;19.958;2023-02-23T00:31:41;16.17;;;11.15;;
56481;SDS011;42384;45.186;19.958;2023-02-23T00:36:34;17.15;;;11.27;;
56481;SDS011;42384;45.186;19.958;2023-02-23T00:39:02;16.38;;;11.27;;
56481;SDS011;42384;45.186;19.958;2023-02-23T00:41:45;24.85;;;15.05;;
56481;SDS011;42384;45.186;19.958;2023-02-23T00:44:11;19.17;;;13.37;;
56481;SDS011;42384;45.186;19.958;2023-02-23T00:46:41;26.30;;;15.50;;
56481;SDS011;42384;45.186;19.958;2023-02-23T00:49:11;22.77;;;14.73;;
56481;SDS011;42384;45.186;19.958;2023-02-23T00:51:38;18.40;;;12.70;;
56481;SDS011;42384;45.186;19.958;2023-02-23T00:54:04;23.33;;;16.20;;
56481;SDS011;42384;45.186;19.958;2023-02-23T00:56:31;21.58;;;15.27;;
56481;SDS011;42384;45.186;19.958;2023-02-23T00:58:57;22.92;;;15.80;;
56481;SDS011;42384;45.186;19.958;2023-02-23T01:01:23;23.00;;;15.95;;
56481;SDS011;42384;45.186;19.958;2023-02-23T01:03:50;20.52;;;14.55;;
56481;SDS011;42384;45.186;19.958;2023-02-23T01:06:19;16.95;;;11.82;;
56481;SDS011;42384;45.186;19.958;2023-02-23T01:08:45;24.38;;;15.68;;
56481;SDS011;42384;45.186;19.958;2023-02-23T01:11:16;20.85;;;14.60;;
56481;SDS011;42384;45.186;19.958;2023-02-23T01:13:43;23.90;;;16.40;;
56481;SDS011;42384;45.186;19.958;2023-02-23T01:16:12;20.15;;;12.90;;
56481;SDS011;42384;45.186;19.958;2023-02-23T01:18:39;15.10;;;11.57;;
56481;SDS011;42384;45.186;19.958;2023-02-23T01:23:32;17.00;;;11.07;;
56481;SDS011;42384;45.186;19.958;2023-02-23T01:25:58;15.23;;;10.68;;
56481;SDS011;42384;45.186;19.958;2023-02-23T01:28:24;16.43;;;10.87;;
56481;SDS011;42384;45.186;19.958;2023-02-23T01:30:50;17.15;;;11.50;;
56481;SDS011;42384;45.186;19.958;2023-02-23T01:33:16;17.67;;;11.80;;
56481;SDS011;42384;45.186;19.958;2023-02-23T01:35:42;19.80;;;11.63;;
56481;SDS011;42384;45.186;19.958;2023-02-23T01:38:09;14.25;;;10.40;;
56481;SDS011;42384;45.186;19.958;2023-02-23T01:40:35;16.73;;;10.90;;
56481;SDS011;42384;45.186;19.958;2023-02-23T01:45:38;15.32;;;10.82;;
56481;SDS011;42384;45.186;19.958;2023-02-23T01:48:05;16.25;;;11.65;;
56481;SDS011;42384;45.186;19.958;2023-02-23T01:51:18;17.08;;;12.68;;
56481;SDS011;42384;45.186;19.958;2023-02-23T01:53:19;18.15;;;12.35;;
56481;SDS011;42384;45.186;19.958;2023-02-23T01:55:47;18.27;;;11.68;;
56481;SDS011;42384;45.186;19.958;2023-02-23T01:58:15;17.90;;;11.82;;
56481;SDS011;42384;45.186;19.958;2023-02-23T02:00:56;14.40;;;10.35;;
56481;SDS011;42384;45.186;19.958;2023-02-23T02:03:30;14.15;;;10.65;;
56481;SDS011;42384;45.186;19.958;2023-02-23T02:05:59;18.45;;;11.90;;
56481;SDS011;42384;45.186;19.958;2023-02-23T02:08:27;16.42;;;10.90;;
56481;SDS011;42384;45.186;19.958;2023-02-23T02:10:55;22.17;;;14.30;;
56481;SDS011;42384;45.186;19.958;2023-02-23T02:13:25;17.77;;;12.30;;
56481;SDS011;42384;45.186;19.958;2023-02-23T02:24:16;21.55;;;14.10;;
56481;SDS011;42384;45.186;19.958;2023-02-23T02:34:42;22.52;;;15.80;;
56481;SDS011;42384;45.186;19.958;2023-02-23T02:42:50;26.42;;;16.85;;
56481;SDS011;42384;45.186;19.958;2023-02-23T02:45:25;27.27;;;16.88;;
56481;SDS011;42384;45.186;19.958;2023-02-23T02:47:57;27.25;;;17.38;;
56481;SDS011;42384;45.186;19.958;2023-02-23T02:50:36;25.13;;;17.05;;
56481;SDS011;42384;45.186;19.958;2023-02-23T02:53:07;38.22;;;17.08;;
56481;SDS011;42384;45.186;19.958;2023-02-23T02:58:02;25.85;;;16.27;;
56481;SDS011;42384;45.186;19.958;2023-02-23T03:00:36;29.17;;;18.85;;
56481;SDS011;42384;45.186;19.958;2023-02-23T03:03:35;26.92;;;17.95;;
56481;SDS011;42384;45.186;19.958;2023-02-23T03:06:21;28.08;;;17.60;;
56481;SDS011;42384;45.186;19.958;2023-02-23T03:09:27;24.10;;;16.70;;
56481;SDS011;42384;45.186;19.958;2023-02-23T03:15:03;27.55;;;18.27;;
56481;SDS011;42384;45.186;19.958;2023-02-23T03:17:56;28.45;;;18.70;;
56481;SDS011;42384;45.186;19.958;2023-02-23T03:20:49;26.90;;;18.35;;
56481;SDS011;42384;45.186;19.958;2023-02-23T03:34:49;30.15;;;19.92;;
56481;SDS011;42384;45.186;19.958;2023-02-23T03:37:37;27.00;;;18.40;;
56481;SDS011;42384;45.186;19.958;2023-02-23T03:40:24;30.25;;;19.27;;
56481;SDS011;42384;45.186;19.958;2023-02-23T03:43:11;31.85;;;20.60;;
56481;SDS011;42384;45.186;19.958;2023-02-23T03:45:56;30.08;;;20.48;;
56481;SDS011;42384;45.186;19.958;2023-02-23T03:48:42;30.23;;;20.48;;
56481;SDS011;42384;45.186;19.958;2023-02-23T03:51:29;28.55;;;19.83;;
56481;SDS011;42384;45.186;19.958;2023-02-23T03:54:52;32.38;;;21.50;;
56481;SDS011;42384;45.186;19.958;2023-02-23T03:57:26;30.40;;;21.45;;
56481;SDS011;42384;45.186;19.958;2023-02-23T04:00:14;31.23;;;21.13;;
56481;SDS011;42384;45.186;19.958;2023-02-23T04:02:59;31.67;;;21.48;;
56481;SDS011;42384;45.186;19.958;2023-02-23T04:05:45;34.13;;;23.25;;
56481;SDS011;42384;45.186;19.958;2023-02-23T04:08:33;28.55;;;20.33;;
56481;SDS011;42384;45.186;19.958;2023-02-23T04:11:42;35.33;;;23.90;;
56481;SDS011;42384;45.186;19.958;2023-02-23T04:14:25;36.60;;;25.42;;
56481;SDS011;42384;45.186;19.958;2023-02-23T04:16:53;36.72;;;26.50;;
56481;SDS011;42384;45.186;19.958;2023-02-23T04:21:47;38.17;;;25.75;;
56481;SDS011;42384;45.186;19.958;2023-02-23T04:24:13;40.10;;;26.53;;
56481;SDS011;42384;45.186;19.958;2023-02-23T04:26:39;40.33;;;26.43;;
56481;SDS011;42384;45.186;19.958;2023-02-23T04:29:06;36.80;;;26.50;;
56481;SDS011;42384;45.186;19.958;2023-02-23T04:31:32;37.00;;;28.05;;
56481;SDS011;42384;45.186;19.958;2023-02-23T04:33:59;41.37;;;27.30;;
56481;SDS011;42384;45.186;19.958;2023-02-23T04:36:25;42.40;;;27.17;;
56481;SDS011;42384;45.186;19.958;2023-02-23T04:38:52;37.30;;;24.95;;
56481;SDS011;42384;45.186;19.958;2023-02-23T04:41:18;42.13;;;26.65;;
56481;SDS011;42384;45.186;19.958;2023-02-23T04:43:44;41.50;;;27.13;;
56481;SDS011;42384;45.186;19.958;2023-02-23T04:46:10;38.03;;;26.87;;
56481;SDS011;42384;45.186;19.958;2023-02-23T04:48:37;34.90;;;25.37;;
56481;SDS011;42384;45.186;19.958;2023-02-23T04:51:03;35.17;;;25.67;;
56481;SDS011;42384;45.186;19.958;2023-02-23T04:53:29;33.13;;;24.27;;
56481;SDS011;42384;45.186;19.958;2023-02-23T04:55:55;35.00;;;24.60;;
56481;SDS011;42384;45.186;19.958;2023-02-23T04:58:22;35.83;;;25.10;;
56481;SDS011;42384;45.186;19.958;2023-02-23T05:00:48;32.38;;;23.17;;
56481;SDS011;42384;45.186;19.958;2023-02-23T05:03:15;33.30;;;23.67;;
56481;SDS011;42384;45.186;19.958;2023-02-23T05:05:44;34.53;;;23.23;;
56481;SDS011;42384;45.186;19.958;2023-02-23T05:08:11;34.08;;;22.15;;
56481;SDS011;42384;45.186;19.958;2023-02-23T05:10:37;30.35;;;21.48;;
56481;SDS011;42384;45.186;19.958;2023-02-23T05:13:03;29.50;;;21.03;;
56481;SDS011;42384;45.186;19.958;2023-02-23T05:15:30;29.60;;;22.23;;
56481;SDS011;42384;45.186;19.958;2023-02-23T05:17:56;30.13;;;21.48;;
56481;SDS011;42384;45.186;19.958;2023-02-23T05:20:22;31.65;;;21.92;;
56481;SDS011;42384;45.186;19.958;2023-02-23T05:22:49;33.47;;;24.27;;
56481;SDS011;42384;45.186;19.958;2023-02-23T05:25:15;34.40;;;24.77;;
56481;SDS011;42384;45.186;19.958;2023-02-23T05:27:41;29.98;;;20.85;;
56481;SDS011;42384;45.186;19.958;2023-02-23T05:30:08;42.55;;;23.85;;
56481;SDS011;42384;45.186;19.958;2023-02-23T05:32:34;35.40;;;23.95;;
56481;SDS011;42384;45.186;19.958;2023-02-23T05:35:01;35.97;;;25.13;;
56481;SDS011;42384;45.186;19.958;2023-02-23T05:37:27;37.00;;;24.58;;
56481;SDS011;42384;45.186;19.958;2023-02-23T05:39:53;38.47;;;24.38;;
56481;SDS011;42384;45.186;19.958;2023-02-23T05:42:19;41.93;;;26.63;;
56481;SDS011;42384;45.186;19.958;2023-02-23T05:44:45;36.90;;;25.92;;
56481;SDS011;42384;45.186;19.958;2023-02-23T05:47:12;35.70;;;25.08;;
56481;SDS011;42384;45.186;19.958;2023-02-23T05:49:38;36.85;;;25.60;;
56481;SDS011;42384;45.186;19.958;2023-02-23T05:52:04;37.00;;;24.77;;
56481;SDS011;42384;45.186;19.958;2023-02-23T05:54:30;36.10;;;25.13;;
56481;SDS011;42384;45.186;19.958;2023-02-23T05:56:57;39.08;;;27.52;;
56481;SDS011;42384;45.186;19.958;2023-02-23T05:59:23;37.45;;;25.55;;
56481;SDS011;42384;45.186;19.958;2023-02-23T06:01:49;42.17;;;27.10;;
56481;SDS011;42384;45.186;19.958;2023-02-23T06:04:16;36.95;;;23.92;;
56481;SDS011;42384;45.186;19.958;2023-02-23T06:06:42;30.88;;;21.30;;
56481;SDS011;42384;45.186;19.958;2023-02-23T06:09:08;32.00;;;22.50;;
56481;SDS011;42384;45.186;19.958;2023-02-23T06:11:34;27.17;;;20.13;;
56481;SDS011;42384;45.186;19.958;2023-02-23T06:14:01;28.10;;;18.53;;
56481;SDS011;42384;45.186;19.958;2023-02-23T06:16:27;23.75;;;16.23;;
56481;SDS011;42384;45.186;19.958;2023-02-23T06:18:53;20.10;;;14.20;;
56481;SDS011;42384;45.186;19.958;2023-02-23T06:21:20;22.75;;;15.82;;
56481;SDS011;42384;45.186;19.958;2023-02-23T06:23:46;22.02;;;14.77;;
56481;SDS011;42384;45.186;19.958;2023-02-23T06:26:12;20.70;;;14.98;;
56481;SDS011;42384;45.186;19.958;2023-02-23T06:28:38;24.93;;;15.27;;
56481;SDS011;42384;45.186;19.958;2023-02-23T06:31:05;19.65;;;14.10;;
56481;SDS011;42384;45.186;19.958;2023-02-23T06:33:32;29.13;;;17.50;;
56481;SDS011;42384;45.186;19.958;2023-02-23T06:35:58;28.70;;;12.30;;
56481;SDS011;42384;45.186;19.958;2023-02-23T06:38:24;33.83;;;17.73;;
56481;SDS011;42384;45.186;19.958;2023-02-23T06:40:52;18.23;;;11.25;;
56481;SDS011;42384;45.186;19.958;2023-02-23T06:43:18;14.63;;;10.43;;
56481;SDS011;42384;45.186;19.958;2023-02-23T06:45:45;21.03;;;11.03;;
56481;SDS011;42384;45.186;19.958;2023-02-23T06:48:11;19.30;;;12.18;;
56481;SDS011;42384;45.186;19.958;2023-02-23T06:50:38;21.98;;;12.98;;
56481;SDS011;42384;45.186;19.958;2023-02-23T06:53:04;20.47;;;12.00;;
56481;SDS011;42384;45.186;19.958;2023-02-23T06:55:30;28.50;;;15.40;;
56481;SDS011;42384;45.186;19.958;2023-02-23T06:57:56;23.92;;;14.93;;
56481;SDS011;42384;45.186;19.958;2023-02-23T07:00:23;33.67;;;16.73;;
56481;SDS011;42384;45.186;19.958;2023-02-23T07:02:49;30.97;;;17.03;;
56481;SDS011;42384;45.186;19.958;2023-02-23T07:05:15;29.20;;;15.93;;
56481;SDS011;42384;45.186;19.958;2023-02-23T07:07:41;31.87;;;15.90;;
56481;SDS011;42384;45.186;19.958;2023-02-23T07:10:08;33.13;;;15.57;;
56481;SDS011;42384;45.186;19.958;2023-02-23T07:12:34;41.38;;;16.70;;
56481;SDS011;42384;45.186;19.958;2023-02-23T07:15:01;32.88;;;15.95;;
56481;SDS011;42384;45.186;19.958;2023-02-23T07:17:27;34.78;;;15.90;;
56481;SDS011;42384;45.186;19.958;2023-02-23T07:19:53;42.65;;;17.58;;
56481;SDS011;42384;45.186;19.958;2023-02-23T07:22:19;37.10;;;14.20;;
56481;SDS011;42384;45.186;19.958;2023-02-23T07:24:46;36.75;;;16.05;;
56481;SDS011;42384;45.186;19.958;2023-02-23T07:27:12;35.97;;;14.17;;
56481;SDS011;42384;45.186;19.958;2023-02-23T07:29:39;15.37;;;9.70;;
56481;SDS011;42384;45.186;19.958;2023-02-23T07:32:06;34.22;;;13.82;;
56481;SDS011;42384;45.186;19.958;2023-02-23T07:36:58;28.73;;;11.77;;
56481;SDS011;42384;45.186;19.958;2023-02-23T07:39:24;32.00;;;12.60;;
56481;SDS011;42384;45.186;19.958;2023-02-23T07:41:50;42.90;;;14.37;;
56481;SDS011;42384;45.186;19.958;2023-02-23T07:44:17;20.27;;;10.10;;
56481;SDS011;42384;45.186;19.958;2023-02-23T07:46:43;28.40;;;12.85;;
56481;SDS011;42384;45.186;19.958;2023-02-23T07:49:11;28.38;;;12.77;;
56481;SDS011;42384;45.186;19.958;2023-02-23T07:51:37;15.85;;;10.55;;
56481;SDS011;42384;45.186;19.958;2023-02-23T07:54:04;15.73;;;10.93;;
56481;SDS011;42384;45.186;19.958;2023-02-23T07:56:31;19.88;;;11.77;;
56481;SDS011;42384;45.186;19.958;2023-02-23T07:58:57;16.98;;;11.80;;
56481;SDS011;42384;45.186;19.958;2023-02-23T08:01:24;18.80;;;13.33;;
56481;SDS011;42384;45.186;19.958;2023-02-23T08:03:50;30.55;;;13.60;;
56481;SDS011;42384;45.186;19.958;2023-02-23T08:06:17;23.08;;;12.90;;
56481;SDS011;42384;45.186;19.958;2023-02-23T08:11:09;17.65;;;11.65;;
56481;SDS011;42384;45.186;19.958;2023-02-23T08:13:36;18.48;;;12.63;;
56481;SDS011;42384;45.186;19.958;2023-02-23T08:16:02;22.73;;;12.82;;
56481;SDS011;42384;45.186;19.958;2023-02-23T08:18:29;36.80;;;15.70;;
56481;SDS011;42384;45.186;19.958;2023-02-23T08:20:59;23.10;;;13.93;;
56481;SDS011;42384;45.186;19.958;2023-02-23T08:23:25;28.10;;;14.65;;
56481;SDS011;42384;45.186;19.958;2023-02-23T08:25:53;22.95;;;14.23;;
56481;SDS011;42384;45.186;19.958;2023-02-23T08:28:19;30.13;;;13.65;;
56481;SDS011;42384;45.186;19.958;2023-02-23T08:30:46;18.55;;;13.68;;
56481;SDS011;42384;45.186;19.958;2023-02-23T08:33:12;23.27;;;14.43;;
56481;SDS011;42384;45.186;19.958;2023-02-23T08:35:38;28.77;;;14.93;;
56481;SDS011;42384;45.186;19.958;2023-02-23T08:38:05;21.83;;;13.80;;
56481;SDS011;42384;45.186;19.958;2023-02-23T08:40:31;21.48;;;13.75;;
56481;SDS011;42384;45.186;19.958;2023-02-23T08:42:58;16.98;;;13.05;;
56481;SDS011;42384;45.186;19.958;2023-02-23T08:45:24;23.35;;;12.85;;
56481;SDS011;42384;45.186;19.958;2023-02-23T08:47:53;20.00;;;13.00;;
56481;SDS011;42384;45.186;19.958;2023-02-23T08:50:20;24.48;;;13.35;;
56481;SDS011;42384;45.186;19.958;2023-02-23T08:52:46;16.45;;;12.77;;
56481;SDS011;42384;45.186;19.958;2023-02-23T08:55:12;24.40;;;12.27;;
56481;SDS011;42384;45.186;19.958;2023-02-23T08:57:42;20.27;;;12.60;;
56481;SDS011;42384;45.186;19.958;2023-02-23T09:00:08;16.20;;;12.90;;
56481;SDS011;42384;45.186;19.958;2023-02-23T09:02:42;26.00;;;13.45;;
56481;SDS011;42384;45.186;19.958;2023-02-23T09:05:08;22.23;;;13.23;;
56481;SDS011;42384;45.186;19.958;2023-02-23T09:07:36;21.73;;;13.27;;
56481;SDS011;42384;45.186;19.958;2023-02-23T09:10:02;23.60;;;12.85;;
56481;SDS011;42384;45.186;19.958;2023-02-23T09:12:29;21.70;;;12.45;;
56481;SDS011;42384;45.186;19.958;2023-02-23T09:14:55;25.05;;;13.38;;
56481;SDS011;42384;45.186;19.958;2023-02-23T09:17:21;24.67;;;13.98;;
56481;SDS011;42384;45.186;19.958;2023-02-23T09:19:48;31.77;;;14.97;;
56481;SDS011;42384;45.186;19.958;2023-02-23T09:22:15;29.48;;;13.23;;
56481;SDS011;42384;45.186;19.958;2023-02-23T09:24:42;18.60;;;13.35;;
56481;SDS011;42384;45.186;19.958;2023-02-23T09:27:09;18.17;;;13.35;;
56481;SDS011;42384;45.186;19.958;2023-02-23T09:29:37;20.77;;;12.38;;
56481;SDS011;42384;45.186;19.958;2023-02-23T09:32:06;19.38;;;13.05;;
56481;SDS011;42384;45.186;19.958;2023-02-23T09:34:32;20.95;;;13.27;;
56481;SDS011;42384;45.186;19.958;2023-02-23T09:37:00;21.02;;;13.18;;
56481;SDS011;42384;45.186;19.958;2023-02-23T09:39:26;20.70;;;15.10;;
56481;SDS011;42384;45.186;19.958;2023-02-23T09:41:56;24.73;;;16.93;;
56481;SDS011;42384;45.186;19.958;2023-02-23T09:49:21;24.48;;;18.65;;
56481;SDS011;42384;45.186;19.958;2023-02-23T09:51:48;24.27;;;16.63;;
56481;SDS011;42384;45.186;19.958;2023-02-23T09:54:18;27.33;;;16.95;;
56481;SDS011;42384;45.186;19.958;2023-02-23T09:56:47;19.75;;;13.82;;
56481;SDS011;42384;45.186;19.958;2023-02-23T09:59:16;19.15;;;13.07;;
56481;SDS011;42384;45.186;19.958;2023-02-23T10:07:08;17.25;;;12.75;;
56481;SDS011;42384;45.186;19.958;2023-02-23T10:09:46;19.70;;;12.32;;
56481;SDS011;42384;45.186;19.958;2023-02-23T10:12:29;19.38;;;12.90;;
56481;SDS011;42384;45.186;19.958;2023-02-23T10:15:03;20.17;;;13.73;;
56481;SDS011;42384;45.186;19.958;2023-02-23T10:17:53;16.58;;;12.02;;
56481;SDS011;42384;45.186;19.958;2023-02-23T10:20:57;15.68;;;11.80;;
56481;SDS011;42384;45.186;19.958;2023-02-23T10:23:17;19.65;;;12.75;;
56481;SDS011;42384;45.186;19.958;2023-02-23T10:25:47;18.33;;;12.65;;
56481;SDS011;42384;45.186;19.958;2023-02-23T10:28:16;16.35;;;10.95;;
56481;SDS011;42384;45.186;19.958;2023-02-23T10:30:44;19.77;;;11.15;;
56481;SDS011;42384;45.186;19.958;2023-02-23T10:35:36;14.63;;;10.68;;
56481;SDS011;42384;45.186;19.958;2023-02-23T10:38:04;19.67;;;12.57;;
56481;SDS011;42384;45.186;19.958;2023-02-23T10:40:31;24.00;;;12.23;;
56481;SDS011;42384;45.186;19.958;2023-02-23T10:42:59;17.60;;;11.90;;
56481;SDS011;42384;45.186;19.958;2023-02-23T10:45:27;18.90;;;11.30;;
56481;SDS011;42384;45.186;19.958;2023-02-23T10:50:19;19.48;;;11.82;;
56481;SDS011;42384;45.186;19.958;2023-02-23T10:52:51;17.10;;;12.18;;
56481;SDS011;42384;45.186;19.958;2023-02-23T10:55:26;22.13;;;12.55;;
56481;SDS011;42384;45.186;19.958;2023-02-23T10:58:11;19.25;;;11.60;;
56481;SDS011;42384;45.186;19.958;2023-02-23T11:00:58;17.02;;;11.18;;
56481;SDS011;42384;45.186;19.958;2023-02-23T11:06:30;18.70;;;12.02;;
56481;SDS011;42384;45.186;19.958;2023-02-23T11:08:56;19.33;;;12.50;;
56481;SDS011;42384;45.186;19.958;2023-02-23T11:11:24;27.77;;;13.40;;
56481;SDS011;42384;45.186;19.958;2023-02-23T11:13:53;24.65;;;13.65;;
56481;SDS011;42384;45.186;19.958;2023-02-23T11:16:23;25.40;;;14.80;;
56481;SDS011;42384;45.186;19.958;2023-02-23T11:21:22;33.63;;;14.40;;
56481;SDS011;42384;45.186;19.958;2023-02-23T11:23:49;25.52;;;14.13;;
56481;SDS011;42384;45.186;19.958;2023-02-23T11:26:20;21.00;;;13.90;;
56481;SDS011;42384;45.186;19.958;2023-02-23T11:28:49;25.73;;;15.88;;
56481;SDS011;42384;45.186;19.958;2023-02-23T11:31:17;31.52;;;14.63;;
56481;SDS011;42384;45.186;19.958;2023-02-23T11:33:45;23.88;;;13.75;;
56481;SDS011;42384;45.186;19.958;2023-02-23T11:36:13;16.65;;;12.63;;
56481;SDS011;42384;45.186;19.958;2023-02-23T11:38:39;16.75;;;12.18;;
56481;SDS011;42384;45.186;19.958;2023-02-23T11:41:16;21.43;;;12.30;;
56481;SDS011;42384;45.186;19.958;2023-02-23T11:43:48;19.42;;;11.52;;
56481;SDS011;42384;45.186;19.958;2023-02-23T11:46:15;15.82;;;10.82;;
56481;SDS011;42384;45.186;19.958;2023-02-23T11:51:32;17.20;;;10.30;;
56481;SDS011;42384;45.186;19.958;2023-02-23T11:54:00;16.75;;;11.23;;
56481;SDS011;42384;45.186;19.958;2023-02-23T11:56:27;17.25;;;11.45;;
56481;SDS011;42384;45.186;19.958;2023-02-23T11:58:55;17.25;;;11.35;;
56481;SDS011;42384;45.186;19.958;2023-02-23T12:01:34;18.10;;;10.27;;
56481;SDS011;42384;45.186;19.958;2023-02-23T12:06:40;19.13;;;11.23;;
56481;SDS011;42384;45.186;19.958;2023-02-23T12:11:43;23.42;;;10.55;;
56481;SDS011;42384;45.186;19.958;2023-02-23T12:16:59;22.52;;;12.15;;
56481;SDS011;42384;45.186;19.958;2023-02-23T12:19:28;16.23;;;11.25;;
56481;SDS011;42384;45.186;19.958;2023-02-23T12:27:28;24.52;;;12.45;;
56481;SDS011;42384;45.186;19.958;2023-02-23T12:35:05;34.92;;;14.15;;
56481;SDS011;42384;45.186;19.958;2023-02-23T12:37:36;32.42;;;14.25;;
56481;SDS011;42384;45.186;19.958;2023-02-23T12:40:17;21.83;;;11.35;;
56481;SDS011;42384;45.186;19.958;2023-02-23T12:45:24;55.72;;;18.63;;
56481;SDS011;42384;45.186;19.958;2023-02-23T12:52:48;25.10;;;14.55;;
56481;SDS011;42384;45.186;19.958;2023-02-23T12:55:18;21.02;;;13.80;;
56481;SDS011;42384;45.186;19.958;2023-02-23T12:57:47;21.02;;;12.00;;
56481;SDS011;42384;45.186;19.958;2023-02-23T13:05:36;15.98;;;11.10;;
56481;SDS011;42384;45.186;19.958;2023-02-23T13:15:51;15.73;;;11.65;;
56481;SDS011;42384;45.186;19.958;2023-02-23T13:18:40;17.52;;;11.32;;
56481;SDS011;42384;45.186;19.958;2023-02-23T13:28:53;17.50;;;10.88;;
56481;SDS011;42384;45.186;19.958;2023-02-23T13:31:22;18.30;;;10.05;;
56481;SDS011;42384;45.186;19.958;2023-02-23T13:33:49;17.08;;;9.20;;
56481;SDS011;42384;45.186;19.958;2023-02-23T13:36:16;17.40;;;10.27;;
56481;SDS011;42384;45.186;19.958;2023-02-23T13:38:50;17.10;;;8.25;;
56481;SDS011;42384;45.186;19.958;2023-02-23T13:41:30;16.80;;;9.32;;
56481;SDS011;42384;45.186;19.958;2023-02-23T13:44:00;17.95;;;7.80;;
56481;SDS011;42384;45.186;19.958;2023-02-23T13:49:34;24.17;;;7.22;;
56481;SDS011;42384;45.186;19.958;2023-02-23T13:54:56;12.52;;;7.55;;
56481;SDS011;42384;45.186;19.958;2023-02-23T13:57:27;17.67;;;8.00;;
56481;SDS011;42384;45.186;19.958;2023-02-23T13:59:54;13.63;;;7.35;;
56481;SDS011;42384;45.186;19.958;2023-02-23T14:05:00;14.52;;;8.13;;
56481;SDS011;42384;45.186;19.958;2023-02-23T14:07:28;11.20;;;7.00;;
56481;SDS011;42384;45.186;19.958;2023-02-23T14:09:57;13.35;;;7.47;;
56481;SDS011;42384;45.186;19.958;2023-02-23T14:14:50;19.27;;;8.23;;
56481;SDS011;42384;45.186;19.958;2023-02-23T14:19:43;17.85;;;8.70;;
56481;SDS011;42384;45.186;19.958;2023-02-23T14:22:28;12.40;;;7.95;;
56481;SDS011;42384;45.186;19.958;2023-02-23T14:27:42;11.85;;;8.52;;
56481;SDS011;42384;45.186;19.958;2023-02-23T14:32:53;10.80;;;7.25;;
56481;SDS011;42384;45.186;19.958;2023-02-23T14:37:59;16.83;;;7.88;;
56481;SDS011;42384;45.186;19.958;2023-02-23T14:40:30;12.48;;;7.53;;
56481;SDS011;42384;45.186;19.958;2023-02-23T14:42:57;15.60;;;7.45;;
56481;SDS011;42384;45.186;19.958;2023-02-23T14:45:29;14.95;;;8.30;;
56481;SDS011;42384;45.186;19.958;2023-02-23T14:47:57;14.63;;;8.35;;
56481;SDS011;42384;45.186;19.958;2023-02-23T14:50:27;11.82;;;8.90;;
56481;SDS011;42384;45.186;19.958;2023-02-23T14:52:54;13.23;;;8.25;;
56481;SDS011;42384;45.186;19.958;2023-02-23T14:55:26;15.35;;;9.70;;
56481;SDS011;42384;45.186;19.958;2023-02-23T14:57:52;12.10;;;7.57;;
56481;SDS011;42384;45.186;19.958;2023-02-23T15:00:26;16.83;;;8.75;;
56481;SDS011;42384;45.186;19.958;2023-02-23T15:05:19;15.82;;;8.32;;
56481;SDS011;42384;45.186;19.958;2023-02-23T15:07:47;13.07;;;8.88;;
56481;SDS011;42384;45.186;19.958;2023-02-23T15:10:33;16.85;;;10.00;;
56481;SDS011;42384;45.186;19.958;2023-02-23T15:12:59;18.08;;;10.05;;
56481;SDS011;42384;45.186;19.958;2023-02-23T15:17:57;19.83;;;9.15;;
56481;SDS011;42384;45.186;19.958;2023-02-23T15:20:26;15.50;;;8.10;;
56481;SDS011;42384;45.186;19.958;2023-02-23T15:22:56;24.17;;;9.65;;
56481;SDS011;42384;45.186;19.958;2023-02-23T15:25:25;17.95;;;8.70;;
56481;SDS011;42384;45.186;19.958;2023-02-23T15:27:58;22.95;;;9.75;;
56481;SDS011;42384;45.186;19.958;2023-02-23T15:30:30;18.77;;;9.82;;
56481;SDS011;42384;45.186;19.958;2023-02-23T15:33:09;16.70;;;9.73;;
56481;SDS011;42384;45.186;19.958;2023-02-23T15:35:40;14.23;;;8.87;;
56481;SDS011;42384;45.186;19.958;2023-02-23T15:38:10;23.83;;;10.23;;
56481;SDS011;42384;45.186;19.958;2023-02-23T15:40:41;18.67;;;9.90;;
56481;SDS011;42384;45.186;19.958;2023-02-23T15:43:07;17.00;;;8.73;;
56481;SDS011;42384;45.186;19.958;2023-02-23T15:45:41;18.77;;;9.10;;
56481;SDS011;42384;45.186;19.958;2023-02-23T15:48:15;24.85;;;9.70;;
56481;SDS011;42384;45.186;19.958;2023-02-23T15:50:43;17.80;;;8.30;;
56481;SDS011;42384;45.186;19.958;2023-02-23T15:53:33;15.85;;;8.52;;
56481;SDS011;42384;45.186;19.958;2023-02-23T15:56:09;19.77;;;9.38;;
56481;SDS011;42384;45.186;19.958;2023-02-23T15:58:39;20.27;;;9.02;;
56481;SDS011;42384;45.186;19.958;2023-02-23T16:01:09;20.63;;;8.48;;
56481;SDS011;42384;45.186;19.958;2023-02-23T16:03:37;18.48;;;8.68;;
56481;SDS011;42384;45.186;19.958;2023-02-23T16:06:21;19.25;;;7.93;;
56481;SDS011;42384;45.186;19.958;2023-02-23T16:08:54;16.73;;;8.73;;
56481;SDS011;42384;45.186;19.958;2023-02-23T16:11:21;16.88;;;8.25;;
56481;SDS011;42384;45.186;19.958;2023-02-23T16:13:52;18.85;;;8.85;;
56481;SDS011;42384;45.186;19.958;2023-02-23T16:16:19;20.88;;;7.95;;
56481;SDS011;42384;45.186;19.958;2023-02-23T16:18:52;14.68;;;8.40;;
56481;SDS011;42384;45.186;19.958;2023-02-23T16:21:25;15.75;;;7.82;;
56481;SDS011;42384;45.186;19.958;2023-02-23T16:23:55;19.60;;;8.15;;
56481;SDS011;42384;45.186;19.958;2023-02-23T16:26:25;22.40;;;9.40;;
56481;SDS011;42384;45.186;19.958;2023-02-23T16:28:57;31.08;;;16.38;;
56481;SDS011;42384;45.186;19.958;2023-02-23T16:31:25;139.35;;;87.45;;
56481;SDS011;42384;45.186;19.958;2023-02-23T16:36:49;39.65;;;21.55;;
56481;SDS011;42384;45.186;19.958;2023-02-23T16:41:42;76.60;;;48.88;;
56481;SDS011;42384;45.186;19.958;2023-02-23T16:44:12;40.20;;;24.25;;
56481;SDS011;42384;45.186;19.958;2023-02-23T16:49:21;22.80;;;14.88;;
56481;SDS011;42384;45.186;19.958;2023-02-23T16:51:48;18.27;;;14.05;;
56481;SDS011;42384;45.186;19.958;2023-02-23T16:54:15;30.85;;;17.95;;
56481;SDS011;42384;45.186;19.958;2023-02-23T16:56:41;27.23;;;17.35;;
56481;SDS011;42384;45.186;19.958;2023-02-23T16:59:08;33.30;;;19.08;;
56481;SDS011;42384;45.186;19.958;2023-02-23T17:01:38;30.58;;;18.98;;
56481;SDS011;42384;45.186;19.958;2023-02-23T17:04:08;29.75;;;19.13;;
56481;SDS011;42384;45.186;19.958;2023-02-23T17:06:36;27.48;;;18.40;;
56481;SDS011;42384;45.186;19.958;2023-02-23T17:09:02;28.67;;;18.55;;
56481;SDS011;42384;45.186;19.958;2023-02-23T17:11:28;27.25;;;17.50;;